createdAt,value
2018-05-04T00:00:27.268Z,14.50
2018-05-04T00:02:53.513Z,14.60
2018-05-04T00:05:19.726Z,14.60
2018-05-04T00:07:46.794Z,14.70
2018-05-04T00:10:13.035Z,14.70
2018-05-04T00:12:39.242Z,14.70
2018-05-04T00:15:06.706Z,14.80
2018-05-04T00:17:34.268Z,14.80
2018-05-04T00:20:01.868Z,14.70
2018-05-04T00:22:28.074Z,14.70
2018-05-04T00:24:55.034Z,14.80
2018-05-04T00:27:21.260Z,14.80
2018-05-04T00:29:48.554Z,14.80
2018-05-04T00:32:14.764Z,14.80
2018-05-04T00:34:40.979Z,14.80
2018-05-04T00:37:07.983Z,14.70
2018-05-04T00:39:34.196Z,14.60
2018-05-04T00:42:01.226Z,14.70
2018-05-04T00:44:28.052Z,14.70
2018-05-04T00:46:55.215Z,14.70
2018-05-04T00:49:22.172Z,14.70
2018-05-04T00:51:49.938Z,14.70
2018-05-04T00:54:24.360Z,14.70
2018-05-04T00:56:51.314Z,14.70
2018-05-04T00:59:18.261Z,14.70
2018-05-04T01:01:45.249Z,14.70
2018-05-04T01:04:11.457Z,14.70
2018-05-04T01:06:37.785Z,14.80
2018-05-04T01:09:04.809Z,14.80
2018-05-04T01:11:31.036Z,14.80
2018-05-04T01:13:57.913Z,14.80
2018-05-04T01:16:25.257Z,14.90
2018-05-04T01:18:52.028Z,14.90
2018-05-04T01:21:18.985Z,14.90
2018-05-04T01:23:45.204Z,14.90
2018-05-04T01:26:12.806Z,14.90
2018-05-04T01:28:39.017Z,14.90
2018-05-04T01:31:05.265Z,15.00
2018-05-04T01:33:31.508Z,15.00
2018-05-04T01:35:58.193Z,14.90
2018-05-04T01:38:24.417Z,15.00
2018-05-04T01:40:51.413Z,15.00
2018-05-04T01:43:18.069Z,15.00
2018-05-04T01:45:44.889Z,15.10
2018-05-04T01:48:12.156Z,15.10
2018-05-04T01:50:39.113Z,15.10
2018-05-04T01:53:21.537Z,15.00
2018-05-04T01:55:48.353Z,15.00
2018-05-04T01:58:15.317Z,15.00
2018-05-04T02:00:41.516Z,15.00
2018-05-04T02:03:07.798Z,15.00
2018-05-04T02:05:34.041Z,15.00
2018-05-04T02:08:00.345Z,15.00
2018-05-04T02:13:24.605Z,14.90
2018-05-04T02:15:52.314Z,14.90
2018-05-04T02:18:18.529Z,14.90
2018-05-04T02:20:45.516Z,14.80
2018-05-04T02:23:11.714Z,14.80
2018-05-04T02:25:39.160Z,14.90
2018-05-04T02:28:05.392Z,14.90
2018-05-04T02:30:31.642Z,14.90
2018-05-04T02:32:58.609Z,14.90
2018-05-04T02:35:25.554Z,14.90
2018-05-04T02:37:52.609Z,14.90
2018-05-04T02:40:19.914Z,14.90
2018-05-04T02:42:46.727Z,14.90
2018-05-04T02:45:13.553Z,14.90
2018-05-04T02:47:40.838Z,14.90
2018-05-04T02:50:07.061Z,14.90
2018-05-04T02:52:33.986Z,14.90
2018-05-04T02:55:01.770Z,14.90
2018-05-04T02:57:28.722Z,14.90
2018-05-04T02:59:55.677Z,14.90
2018-05-04T03:02:22.683Z,14.90
2018-05-04T03:04:48.893Z,14.90
2018-05-04T03:07:15.195Z,14.90
2018-05-04T03:09:42.870Z,15.00
2018-05-04T03:12:09.069Z,15.00
2018-05-04T03:14:36.149Z,15.00
2018-05-04T03:17:03.114Z,15.00
2018-05-04T03:19:29.346Z,15.00
2018-05-04T03:21:56.571Z,15.00
2018-05-04T03:24:22.730Z,15.00
2018-05-04T03:26:50.592Z,14.90
2018-05-04T03:29:17.576Z,14.90
2018-05-04T03:31:43.794Z,14.90
2018-05-04T03:34:10.034Z,14.90
2018-05-04T03:36:36.614Z,14.90
2018-05-04T03:39:03.386Z,14.90
2018-05-04T03:41:30.202Z,15.00
2018-05-04T03:43:57.106Z,15.00
2018-05-04T03:46:23.793Z,15.00
2018-05-04T03:48:50.507Z,15.00
2018-05-04T03:51:16.713Z,15.00
2018-05-04T03:53:44.533Z,15.00
2018-05-04T03:56:11.125Z,15.00
2018-05-04T03:58:50.301Z,14.90
2018-05-04T04:01:28.785Z,14.90
2018-05-04T04:04:05.849Z,15.00
2018-05-04T04:06:32.914Z,15.10
2018-05-04T04:09:00.538Z,15.20
2018-05-04T04:11:26.746Z,15.10
2018-05-04T04:13:53.571Z,15.20
2018-05-04T04:16:19.786Z,15.20
2018-05-04T04:18:47.197Z,15.20
2018-05-04T04:21:13.400Z,15.20
2018-05-04T04:23:40.103Z,15.20
2018-05-04T04:26:06.325Z,15.20
2018-05-04T04:28:32.540Z,15.30
2018-05-04T04:30:58.789Z,15.20
2018-05-04T04:33:25.002Z,15.20
2018-05-04T04:35:51.725Z,15.20
2018-05-04T04:38:18.413Z,15.30
2018-05-04T04:40:44.645Z,15.30
2018-05-04T04:43:10.877Z,15.30
2018-05-04T04:45:37.616Z,15.20
2018-05-04T04:48:04.250Z,15.20
2018-05-04T04:50:30.472Z,15.20
2018-05-04T04:52:57.304Z,15.20
2018-05-04T04:55:23.858Z,15.10
2018-05-04T04:57:50.074Z,15.10
2018-05-04T05:00:17.048Z,14.90
2018-05-04T05:02:43.624Z,14.90
2018-05-04T05:05:11.341Z,14.90
2018-05-04T05:07:37.552Z,14.80
2018-05-04T05:10:04.096Z,14.80
2018-05-04T05:12:31.089Z,14.60
2018-05-04T05:14:58.006Z,14.60
2018-05-04T05:17:25.428Z,14.60
2018-05-04T05:19:51.672Z,14.60
2018-05-04T05:22:17.890Z,14.60
2018-05-04T05:24:44.139Z,14.70
2018-05-04T05:27:10.360Z,14.70
2018-05-04T05:29:36.709Z,14.80
2018-05-04T05:32:03.389Z,14.80
2018-05-04T05:34:30.898Z,14.80
2018-05-04T05:36:58.203Z,14.80
2018-05-04T05:39:25.188Z,14.80
2018-05-04T05:41:52.098Z,14.80
2018-05-04T05:44:19.675Z,14.90
2018-05-04T05:46:47.228Z,14.90
2018-05-04T05:49:14.548Z,14.90
2018-05-04T05:51:40.804Z,15.00
2018-05-04T05:54:08.322Z,15.00
2018-05-04T05:56:35.011Z,14.90
2018-05-04T05:59:01.683Z,15.00
2018-05-04T06:01:28.650Z,15.10
2018-05-04T06:03:55.374Z,15.00
2018-05-04T06:06:22.368Z,15.10
2018-05-04T06:08:48.589Z,15.10
2018-05-04T06:11:14.840Z,15.20
2018-05-04T06:13:41.858Z,15.30
2018-05-04T06:16:08.855Z,15.40
2018-05-04T06:18:35.082Z,15.30
2018-05-04T06:21:01.339Z,15.50
2018-05-04T06:23:27.586Z,15.60
2018-05-04T06:25:53.915Z,15.70
2018-05-04T06:28:20.154Z,15.80
2018-05-04T06:30:47.031Z,15.80
2018-05-04T06:33:15.808Z,16.00
2018-05-04T06:35:42.776Z,16.10
2018-05-04T06:38:08.994Z,16.00
2018-05-04T06:40:36.016Z,16.30
2018-05-04T06:43:02.234Z,16.20
2018-05-04T06:45:28.965Z,16.40
2018-05-04T06:47:55.722Z,16.50
2018-05-04T06:50:21.989Z,16.60
2018-05-04T06:52:48.605Z,16.60
2018-05-04T06:55:15.819Z,16.70
2018-05-04T06:57:43.381Z,16.80
2018-05-04T07:00:10.969Z,16.90
2018-05-04T07:02:37.179Z,16.90
2018-05-04T07:05:04.129Z,17.00
2018-05-04T07:07:31.114Z,17.00
2018-05-04T07:09:57.348Z,17.00
2018-05-04T07:12:24.029Z,17.10
2018-05-04T07:14:50.646Z,17.30
2018-05-04T07:17:16.866Z,17.40
2018-05-04T07:19:43.092Z,17.40
2018-05-04T07:22:09.432Z,17.60
2018-05-04T07:24:35.600Z,17.70
2018-05-04T07:27:02.404Z,17.70
2018-05-04T07:29:29.339Z,17.80
2018-05-04T07:31:56.180Z,17.80
2018-05-04T07:34:23.140Z,17.90
2018-05-04T07:36:49.374Z,17.90
2018-05-04T07:39:15.671Z,17.90
2018-05-04T07:41:41.910Z,18.00
2018-05-04T07:44:08.897Z,18.10
2018-05-04T07:46:35.776Z,18.30
2018-05-04T07:49:02.546Z,18.40
2018-05-04T07:51:28.805Z,18.40
2018-05-04T07:53:55.667Z,18.40
2018-05-04T07:56:34.072Z,18.30
2018-05-04T07:59:01.441Z,18.20
2018-05-04T08:01:28.432Z,18.30
2018-05-04T08:03:54.654Z,18.20
2018-05-04T08:06:20.930Z,18.20
2018-05-04T08:08:47.139Z,18.20
2018-05-04T08:11:14.235Z,18.10
2018-05-04T08:13:41.854Z,18.50
2018-05-04T08:16:08.043Z,18.40
2018-05-04T08:18:35.002Z,19.00
2018-05-04T08:21:01.256Z,19.00
2018-05-04T08:23:27.486Z,18.90
2018-05-04T08:25:54.149Z,19.20
2018-05-04T08:28:21.054Z,19.30
2018-05-04T08:30:48.065Z,19.20
2018-05-04T08:33:14.265Z,19.20
2018-05-04T08:35:40.476Z,19.10
2018-05-04T08:38:07.438Z,19.10
2018-05-04T08:40:34.180Z,19.10
2018-05-04T08:43:01.153Z,19.10
2018-05-04T08:45:29.018Z,18.90
2018-05-04T08:47:55.746Z,19.00
2018-05-04T08:50:22.461Z,19.20
2018-05-04T08:52:50.147Z,19.30
2018-05-04T08:55:18.134Z,19.40
2018-05-04T08:57:44.730Z,19.40
2018-05-04T09:00:10.993Z,19.30
2018-05-04T09:02:38.035Z,19.30
2018-05-04T09:05:05.133Z,19.20
2018-05-04T09:07:32.409Z,19.20
2018-05-04T09:09:58.785Z,19.10
2018-05-04T09:12:25.760Z,19.20
2018-05-04T09:14:53.074Z,19.40
2018-05-04T09:17:20.117Z,19.50
2018-05-04T09:19:46.309Z,19.40
2018-05-04T09:22:13.008Z,19.50
2018-05-04T09:24:39.616Z,19.60
2018-05-04T09:27:06.189Z,19.70
2018-05-04T09:29:32.983Z,19.60
2018-05-04T09:31:59.203Z,19.70
2018-05-04T09:34:26.818Z,19.80
2018-05-04T09:36:53.923Z,19.80
2018-05-04T09:39:20.882Z,19.90
2018-05-04T09:41:47.845Z,20.00
2018-05-04T09:44:14.777Z,20.00
2018-05-04T09:46:42.235Z,20.30
2018-05-04T09:49:09.572Z,20.50
2018-05-04T09:51:35.800Z,20.50
2018-05-04T09:54:02.891Z,20.60
2018-05-04T09:56:29.872Z,20.40
2018-05-04T09:58:56.085Z,20.50
2018-05-04T10:01:22.335Z,20.50
2018-05-04T10:03:48.570Z,20.60
2018-05-04T10:06:15.121Z,20.70
2018-05-04T10:08:41.330Z,20.70
2018-05-04T10:11:07.553Z,20.80
2018-05-04T10:13:35.140Z,21.40
2018-05-04T10:16:01.412Z,21.40
2018-05-04T10:18:27.612Z,21.70
2018-05-04T10:20:54.258Z,21.90
2018-05-04T10:23:20.994Z,22.10
2018-05-04T10:25:47.208Z,22.20
2018-05-04T10:28:14.516Z,21.50
2018-05-04T10:30:40.732Z,21.40
2018-05-04T10:33:06.962Z,21.20
2018-05-04T10:35:33.524Z,21.40
2018-05-04T10:37:59.762Z,21.60
2018-05-04T10:40:25.979Z,21.70
2018-05-04T10:42:52.204Z,21.60
2018-05-04T10:45:18.880Z,21.40
2018-05-04T10:47:45.572Z,21.30
2018-05-04T10:50:12.565Z,21.30
2018-05-04T10:52:39.458Z,21.40
2018-05-04T10:55:07.658Z,21.60
2018-05-04T10:57:33.925Z,21.60
2018-05-04T11:00:00.156Z,21.50
2018-05-04T11:02:27.023Z,21.50
2018-05-04T11:04:53.254Z,21.60
2018-05-04T11:07:19.475Z,21.80
2018-05-04T11:09:45.768Z,21.40
2018-05-04T11:12:12.743Z,21.30
2018-05-04T11:14:39.393Z,21.30
2018-05-04T11:17:06.212Z,21.60
2018-05-04T11:19:33.940Z,21.10
2018-05-04T11:22:00.416Z,21.10
2018-05-04T11:24:27.382Z,21.20
2018-05-04T11:26:53.610Z,21.10
2018-05-04T11:29:19.845Z,21.30
2018-05-04T11:31:46.059Z,21.10
2018-05-04T11:34:13.846Z,21.60
2018-05-04T11:36:40.074Z,21.60
2018-05-04T11:39:07.034Z,21.60
2018-05-04T11:41:33.305Z,21.60
2018-05-04T11:43:59.977Z,21.60
2018-05-04T11:46:26.197Z,21.30
2018-05-04T11:48:53.180Z,21.10
2018-05-04T11:51:20.142Z,20.90
2018-05-04T11:53:48.015Z,20.90
2018-05-04T11:56:14.226Z,20.90
2018-05-04T11:58:40.437Z,20.70
2018-05-04T12:01:07.042Z,20.80
2018-05-04T12:03:33.252Z,20.80
2018-05-04T12:06:00.236Z,20.70
2018-05-04T12:08:27.194Z,20.70
2018-05-04T12:10:53.743Z,20.90
2018-05-04T12:13:20.657Z,21.10
2018-05-04T12:15:47.380Z,21.10
2018-05-04T12:18:14.957Z,21.20
2018-05-04T12:20:41.914Z,21.00
2018-05-04T12:23:08.129Z,21.00
2018-05-04T12:25:35.125Z,21.60
2018-05-04T12:28:01.348Z,21.60
2018-05-04T12:30:28.402Z,21.90
2018-05-04T12:32:54.629Z,21.90
2018-05-04T12:35:20.845Z,21.90
2018-05-04T12:37:47.078Z,22.40
2018-05-04T12:40:14.067Z,21.90
2018-05-04T12:42:40.388Z,21.80
2018-05-04T12:45:08.057Z,21.60
2018-05-04T12:47:34.828Z,21.20
2018-05-04T12:50:01.077Z,21.30
2018-05-04T12:52:28.061Z,21.60
2018-05-04T12:54:55.525Z,22.40
2018-05-04T12:57:23.105Z,22.50
2018-05-04T12:59:49.353Z,22.50
2018-05-04T13:02:16.082Z,22.50
2018-05-04T13:04:42.289Z,22.40
2018-05-04T13:07:08.513Z,22.20
2018-05-04T13:09:35.170Z,22.10
2018-05-04T13:12:02.602Z,21.80
2018-05-04T13:14:29.274Z,21.90
2018-05-04T13:16:55.905Z,21.60
2018-05-04T13:19:22.122Z,21.70
2018-05-04T13:21:48.362Z,21.60
2018-05-04T13:24:14.601Z,22.00
2018-05-04T13:26:40.818Z,22.10
2018-05-04T13:29:07.717Z,21.60
2018-05-04T13:31:34.706Z,21.40
2018-05-04T13:34:00.957Z,21.30
2018-05-04T13:36:27.237Z,21.40
2018-05-04T13:38:54.197Z,21.30
2018-05-04T13:41:20.497Z,21.20
2018-05-04T13:43:47.979Z,21.10
2018-05-04T13:46:15.585Z,21.10
2018-05-04T13:48:42.345Z,21.10
2018-05-04T13:51:08.566Z,21.50
2018-05-04T13:53:35.372Z,21.30
2018-05-04T13:56:02.938Z,21.30
2018-05-04T13:58:30.369Z,21.10
2018-05-04T14:00:56.647Z,21.00
2018-05-04T14:03:22.853Z,21.20
2018-05-04T14:05:51.105Z,20.60
2018-05-04T14:08:17.333Z,20.50
2018-05-04T14:10:44.043Z,20.50
2018-05-04T14:13:11.197Z,20.40
2018-05-04T14:15:37.753Z,20.30
2018-05-04T14:18:03.978Z,20.20
2018-05-04T14:20:30.221Z,19.90
2018-05-04T14:22:56.477Z,19.90
2018-05-04T14:25:23.222Z,19.90
2018-05-04T14:27:49.469Z,19.90
2018-05-04T14:30:15.705Z,19.90
2018-05-04T14:32:41.930Z,19.80
2018-05-04T14:35:08.162Z,19.90
2018-05-04T14:37:34.461Z,20.10
2018-05-04T14:40:00.721Z,20.70
2018-05-04T14:42:27.421Z,20.80
2018-05-04T14:44:54.915Z,21.70
2018-05-04T14:47:21.685Z,21.70
2018-05-04T14:49:47.925Z,21.80
2018-05-04T14:52:14.936Z,21.50
2018-05-04T14:54:41.669Z,21.40
2018-05-04T14:57:09.029Z,21.70
2018-05-04T14:59:36.028Z,22.40
2018-05-04T15:02:02.253Z,22.30
2018-05-04T15:04:28.492Z,22.40
2018-05-04T15:06:55.189Z,21.70
2018-05-04T15:09:22.641Z,21.30
2018-05-04T15:11:50.400Z,20.80
2018-05-04T15:14:17.037Z,20.80
2018-05-04T15:16:43.809Z,20.80
2018-05-04T15:19:10.765Z,20.30
2018-05-04T15:21:38.490Z,20.10
2018-05-04T15:24:05.277Z,20.10
2018-05-04T15:26:32.242Z,20.10
2018-05-04T15:28:58.501Z,20.10
2018-05-04T15:31:24.804Z,20.60
2018-05-04T15:33:50.985Z,20.60
2018-05-04T15:36:17.857Z,21.40
2018-05-04T15:38:44.861Z,21.30
2018-05-04T15:41:11.538Z,21.30
2018-05-04T15:43:37.804Z,21.30
2018-05-04T15:46:05.342Z,20.80
2018-05-04T15:48:38.982Z,20.60
2018-05-04T15:51:13.405Z,20.40
2018-05-04T15:53:40.973Z,20.20
2018-05-04T15:56:07.810Z,20.20
2018-05-04T15:58:34.810Z,20.00
2018-05-04T16:01:01.035Z,20.00
2018-05-04T16:03:27.290Z,20.10
2018-05-04T16:05:53.973Z,20.00
2018-05-04T16:08:21.464Z,19.80
2018-05-04T16:10:48.101Z,19.70
2018-05-04T16:13:15.026Z,19.60
2018-05-04T16:15:42.020Z,19.70
2018-05-04T16:18:08.277Z,19.70
2018-05-04T16:20:35.069Z,19.70
2018-05-04T16:23:02.040Z,19.70
2018-05-04T16:25:28.260Z,19.70
2018-05-04T16:27:54.501Z,19.70
2018-05-04T16:30:21.105Z,19.50
2018-05-04T16:32:47.354Z,19.50
2018-05-04T16:35:14.769Z,19.40
2018-05-04T16:37:41.621Z,19.40
2018-05-04T16:40:08.674Z,19.50
2018-05-04T16:42:35.426Z,19.40
2018-05-04T16:45:02.276Z,19.40
2018-05-04T16:47:29.379Z,19.30
2018-05-04T16:49:55.631Z,19.40
2018-05-04T16:52:21.884Z,19.40
2018-05-04T16:54:48.721Z,19.50
2018-05-04T16:57:14.989Z,19.40
2018-05-04T16:59:41.240Z,19.50
2018-05-04T17:02:08.242Z,19.20
2018-05-04T17:04:35.189Z,19.20
2018-05-04T17:07:01.934Z,19.20
2018-05-04T17:09:28.193Z,19.10
2018-05-04T17:11:54.460Z,19.00
2018-05-04T17:14:21.818Z,18.90
2018-05-04T17:16:48.026Z,18.90
2018-05-04T17:19:14.706Z,19.00
2018-05-04T17:21:41.701Z,18.90
2018-05-04T17:24:08.620Z,18.90
2018-05-04T17:26:35.620Z,18.90
2018-05-04T17:29:01.876Z,18.80
2018-05-04T17:31:30.116Z,18.70
2018-05-04T17:33:56.836Z,18.70
2018-05-04T17:36:23.404Z,18.60
2018-05-04T17:38:49.649Z,18.70
2018-05-04T17:41:16.314Z,18.70
2018-05-04T17:43:42.913Z,18.60
2018-05-04T17:46:09.749Z,18.70
2018-05-04T17:48:36.379Z,18.70
2018-05-04T17:51:03.356Z,18.60
2018-05-04T17:53:30.169Z,18.60
2018-05-04T17:55:57.580Z,18.60
2018-05-04T17:58:23.784Z,18.60
2018-05-04T18:00:50.469Z,18.40
2018-05-04T18:03:17.319Z,18.20
2018-05-04T18:05:43.961Z,18.10
2018-05-04T18:08:10.498Z,18.00
2018-05-04T18:10:36.724Z,17.90
2018-05-04T18:13:02.964Z,17.90
2018-05-04T18:15:29.880Z,17.90
2018-05-04T18:17:56.791Z,17.80
2018-05-04T18:20:23.309Z,17.70
2018-05-04T18:22:49.564Z,17.70
2018-05-04T18:25:15.816Z,17.60
2018-05-04T18:27:43.105Z,17.40
2018-05-04T18:30:09.938Z,17.40
2018-05-04T18:32:37.353Z,17.30
2018-05-04T18:35:03.585Z,17.30
2018-05-04T18:37:29.837Z,17.30
2018-05-04T18:39:56.728Z,17.20
2018-05-04T18:42:23.179Z,17.10
2018-05-04T18:44:50.405Z,17.10
2018-05-04T18:47:18.062Z,16.90
2018-05-04T18:49:45.220Z,16.90
2018-05-04T18:52:12.514Z,16.80
2018-05-04T18:54:39.885Z,16.70
2018-05-04T18:57:06.286Z,16.80
2018-05-04T18:59:33.632Z,16.60
2018-05-04T19:02:01.102Z,16.60
2018-05-04T19:04:28.070Z,16.50
2018-05-04T19:06:54.666Z,16.50
2018-05-04T19:09:21.282Z,16.40
2018-05-04T19:11:47.600Z,16.30
2018-05-04T19:14:14.349Z,16.20
2018-05-04T19:16:40.573Z,16.00
2018-05-04T19:19:07.154Z,16.00
2018-05-04T19:21:33.461Z,15.90
2018-05-04T19:23:59.955Z,15.90
2018-05-04T19:26:26.253Z,15.90
2018-05-04T19:28:52.915Z,15.80
2018-05-04T19:31:19.682Z,15.80
2018-05-04T19:33:45.908Z,15.70
2018-05-04T19:36:12.176Z,15.70
2018-05-04T19:38:39.667Z,15.70
2018-05-04T19:41:06.488Z,15.70
2018-05-04T19:43:33.141Z,15.60
2018-05-04T19:45:59.977Z,15.60
2018-05-04T19:48:27.579Z,15.60
2018-05-04T19:50:53.829Z,15.60
2018-05-04T19:53:20.498Z,15.60
2018-05-04T19:55:47.273Z,15.40
2018-05-04T19:58:14.219Z,15.30
2018-05-04T20:00:41.646Z,15.30
2018-05-04T20:03:07.891Z,15.30
2018-05-04T20:05:34.118Z,15.20
2018-05-04T20:08:00.794Z,15.30
2018-05-04T20:10:27.116Z,15.20
2018-05-04T20:12:53.883Z,15.20
2018-05-04T20:15:20.578Z,15.00
2018-05-04T20:17:47.914Z,15.00
2018-05-04T20:20:14.717Z,15.00
2018-05-04T20:22:41.683Z,14.90
2018-05-04T20:25:07.901Z,14.80
2018-05-04T20:27:35.312Z,14.70
2018-05-04T20:30:02.010Z,14.70
2018-05-04T20:32:28.980Z,14.60
2018-05-04T20:34:55.197Z,14.60
2018-05-04T20:37:22.497Z,14.50
2018-05-04T20:39:49.150Z,14.50
2018-05-04T20:42:15.365Z,14.50
2018-05-04T20:44:42.286Z,14.50
2018-05-04T20:47:09.838Z,14.60
2018-05-04T20:49:37.424Z,14.60
2018-05-04T20:52:04.144Z,14.60
2018-05-04T20:54:30.667Z,14.60
2018-05-04T20:56:57.437Z,14.70
2018-05-04T20:59:24.413Z,14.70
2018-05-04T21:01:50.645Z,14.70
2018-05-04T21:04:16.879Z,14.70
2018-05-04T21:06:43.097Z,14.80
2018-05-04T21:09:10.498Z,14.80
2018-05-04T21:11:36.737Z,14.80
2018-05-04T21:14:03.617Z,14.80
2018-05-04T21:16:29.825Z,14.80
2018-05-04T21:18:56.625Z,14.80
2018-05-04T21:21:22.849Z,14.70
2018-05-04T21:23:49.810Z,14.60
2018-05-04T21:26:17.193Z,14.50
2018-05-04T21:28:43.837Z,14.50
2018-05-04T21:31:11.451Z,14.40
2018-05-04T21:33:37.666Z,14.50
2018-05-04T21:36:05.067Z,14.50
2018-05-04T21:38:32.867Z,14.40
2018-05-04T21:40:59.090Z,14.40
2018-05-04T21:43:25.330Z,14.30
2018-05-04T21:45:52.362Z,14.20
2018-05-04T21:48:19.866Z,14.10
2018-05-04T21:50:46.773Z,14.10
2018-05-04T21:53:13.701Z,14.10
2018-05-04T21:55:40.458Z,14.10
2018-05-04T21:58:07.410Z,14.10
2018-05-04T22:00:34.381Z,14.20
2018-05-04T22:03:00.613Z,14.10
2018-05-04T22:05:26.834Z,14.20
2018-05-04T22:07:53.929Z,14.00
2018-05-04T22:10:20.170Z,14.00
2018-05-04T22:12:46.385Z,14.00
2018-05-04T22:15:13.201Z,14.00
2018-05-04T22:17:40.178Z,14.10
2018-05-04T22:20:06.762Z,14.10
2018-05-04T22:22:33.588Z,14.10
2018-05-04T22:24:59.818Z,14.20
2018-05-04T22:27:26.057Z,14.30
2018-05-04T22:29:52.713Z,14.20
2018-05-04T22:32:18.930Z,14.30
2018-05-04T22:34:45.692Z,14.30
2018-05-04T22:37:13.402Z,14.30
2018-05-04T22:39:41.078Z,14.30
2018-05-04T22:42:08.043Z,14.30
2018-05-04T22:44:34.877Z,14.30
2018-05-04T22:47:01.621Z,14.20
2018-05-04T22:49:28.361Z,14.20
2018-05-04T22:51:55.947Z,14.30
2018-05-04T22:54:22.591Z,14.30
2018-05-04T22:56:48.845Z,14.30
2018-05-04T22:59:15.073Z,14.20
2018-05-04T23:01:41.322Z,14.20
2018-05-04T23:04:07.527Z,14.20
2018-05-04T23:06:34.350Z,14.20
2018-05-04T23:09:01.835Z,14.20
2018-05-04T23:11:28.022Z,14.20
2018-05-04T23:13:54.641Z,14.10
2018-05-04T23:16:20.885Z,14.20
2018-05-04T23:18:47.714Z,14.20
2018-05-04T23:21:14.337Z,14.20
2018-05-04T23:23:40.569Z,14.10
2018-05-04T23:26:07.241Z,14.10
2018-05-04T23:28:33.451Z,14.10
2018-05-04T23:31:00.142Z,14.10
2018-05-04T23:33:26.969Z,14.20
2018-05-04T23:35:53.205Z,14.20
2018-05-04T23:38:19.935Z,14.20
2018-05-04T23:40:46.139Z,14.20
2018-05-04T23:43:13.097Z,14.10
2018-05-04T23:45:39.833Z,14.20
2018-05-04T23:48:07.935Z,14.10
2018-05-04T23:50:34.577Z,14.10
2018-05-04T23:53:00.804Z,14.00
2018-05-04T23:55:27.469Z,14.10
2018-05-04T23:57:53.731Z,14.10
